Time;durP1;ratioP1;P1;durP2;ratioP2;P2;SDS_P1;SDS_P2;PMS_P1;PMS_P2;Temp;Humidity;BMP_temperature;BMP_pressure;BME280_temperature;BME280_humidity;BME280_pressure;Samples;Min_cycle;Max_cycle;Signal;HPM_P1;HPM_P2
2024/04/03 09:31:27;;;;;;;2.15;0.88;;;;;;;;;;5018867;28;21148;-37
2024/04/03 09:33:54;;;;;;;5.30;1.02;;;;;;;;;;4979466;28;20593;-45
2024/04/03 09:36:21;;;;;;;2.38;0.93;;;;;;;;;;4988325;28;20569;-44
2024/04/03 09:38:47;;;;;;;8.10;0.98;;;;;;;;;;4993042;28;20191;-50
2024/04/03 09:41:13;;;;;;;1.25;0.82;;;;;;;;;;4994048;28;20181;-39
2024/04/03 09:43:42;;;;;;;1.75;1.00;;;;;;;;;;4993580;28;20185;-38
2024/04/03 09:46:09;;;;;;;2.72;1.30;;;;;;;;;;4986416;28;20204;-49
2024/04/03 09:48:37;;;;;;;3.25;1.10;;;;;;;;;;4988876;28;20220;-46
2024/04/03 09:51:03;;;;;;;1.73;1.15;;;;;;;;;;4997306;28;20223;-46
2024/04/03 09:53:30;;;;;;;6.35;1.38;;;;;;;;;;4991463;28;20237;-45
2024/04/03 09:55:56;;;;;;;4.55;1.25;;;;;;;;;;4975428;28;20177;-53
2024/04/03 09:58:26;;;;;;;2.72;1.58;;;;;;;;;;4972496;28;20186;-42
2024/04/03 10:00:53;;;;;;;3.33;1.63;;;;;;;;;;4967672;28;20193;-45
2024/04/03 10:03:23;;;;;;;4.00;2.05;;;;;;;;;;4990716;28;20201;-45
2024/04/03 10:05:56;;;;;;;4.13;1.50;;;;;;;;;;4969251;28;20190;-41
2024/04/03 10:08:22;;;;;;;10.98;2.30;;;;;;;;;;4969747;28;20228;-41
2024/04/03 10:10:48;;;;;;;6.95;1.98;;;;;;;;;;4970083;28;20547;-48
2024/04/03 10:13:30;;;;;;;9.35;2.65;;;;;;;;;;4964765;28;20177;-42
2024/04/03 10:16:09;;;;;;;3.00;0.90;;;;;;;;;;4969138;28;20188;-40
2024/04/03 10:18:43;;;;;;;3.33;0.70;;;;;;;;;;4968299;28;20186;-40
2024/04/03 10:21:09;;;;;;;1.73;0.85;;;;;;;;;;4966326;28;20598;-35
2024/04/03 10:23:45;;;;;;;3.08;0.93;;;;;;;;;;4968679;28;20320;-35
2024/04/03 10:26:11;;;;;;;1.40;0.85;;;;;;;;;;4969024;28;20197;-46
2024/04/03 10:28:39;;;;;;;5.15;0.93;;;;;;;;;;4970408;28;20201;-49
2024/04/03 10:31:06;;;;;;;0.70;0.57;;;;;;;;;;4973003;28;20214;-43
2024/04/03 10:33:31;;;;;;;2.58;0.93;;;;;;;;;;4965035;28;20183;-38
2024/04/03 10:35:57;;;;;;;3.25;0.70;;;;;;;;;;4971074;28;20225;-36
2024/04/03 10:38:24;;;;;;;5.72;0.77;;;;;;;;;;4986348;28;20442;-42
2024/04/03 10:40:50;;;;;;;3.38;0.80;;;;;;;;;;4966460;28;20771;-41
2024/04/03 10:43:16;;;;;;;3.42;0.80;;;;;;;;;;4953061;28;20191;-46
2024/04/03 10:45:49;;;;;;;1.08;0.57;;;;;;;;;;4957754;28;20233;-42
2024/04/03 10:48:16;;;;;;;3.10;1.20;;;;;;;;;;4960317;28;20271;-39
2024/04/03 10:50:42;;;;;;;2.42;0.80;;;;;;;;;;4954845;28;20869;-44
2024/04/03 10:53:09;;;;;;;3.78;1.10;;;;;;;;;;4954806;28;20441;-46
2024/04/03 10:55:36;;;;;;;5.22;1.02;;;;;;;;;;4956678;28;20183;-47
2024/04/03 10:58:03;;;;;;;3.40;1.00;;;;;;;;;;4954419;28;20636;-38
2024/04/03 11:00:33;;;;;;;3.58;1.27;;;;;;;;;;4954279;28;20191;-31
2024/04/03 11:02:59;;;;;;;3.72;1.30;;;;;;;;;;4954543;28;20303;-36
2024/04/03 11:05:26;;;;;;;3.65;1.27;;;;;;;;;;4956342;28;20289;-32
2024/04/03 11:07:52;;;;;;;1.88;1.10;;;;;;;;;;4966292;28;20269;-37
2024/04/03 11:10:20;;;;;;;6.18;1.13;;;;;;;;;;4958759;28;20242;-37
2024/04/03 11:12:47;;;;;;;5.65;0.85;;;;;;;;;;4951486;28;20455;-42
2024/04/03 11:15:13;;;;;;;2.88;1.15;;;;;;;;;;4961173;28;20171;-36
2024/04/03 11:17:39;;;;;;;1.95;0.77;;;;;;;;;;4954247;28;20178;-42
2024/04/03 11:20:06;;;;;;;3.42;1.23;;;;;;;;;;4953148;28;20196;-41
2024/04/03 11:22:32;;;;;;;3.60;0.90;;;;;;;;;;4953801;28;20209;-41
2024/04/03 11:25:00;;;;;;;5.85;1.10;;;;;;;;;;4953814;28;20273;-41
2024/04/03 11:27:26;;;;;;;2.60;1.10;;;;;;;;;;4954390;28;20488;-40
2024/04/03 11:29:52;;;;;;;4.22;1.00;;;;;;;;;;4954099;28;20252;-41
2024/04/03 11:32:18;;;;;;;9.07;1.45;;;;;;;;;;4951195;28;20198;-41
2024/04/03 11:34:44;;;;;;;2.45;1.10;;;;;;;;;;4949584;28;20459;-40
2024/04/03 11:37:10;;;;;;;1.98;0.93;;;;;;;;;;4958847;28;20193;-40
2024/04/03 11:39:35;;;;;;;2.90;0.93;;;;;;;;;;4959600;28;20629;-41
2024/04/03 11:42:01;;;;;;;2.22;0.93;;;;;;;;;;4951460;28;20190;-41
2024/04/03 11:44:27;;;;;;;5.03;1.00;;;;;;;;;;4953703;28;20220;-41
2024/04/03 11:46:54;;;;;;;2.72;1.48;;;;;;;;;;4973925;28;20194;-41
2024/04/03 11:49:19;;;;;;;2.88;1.15;;;;;;;;;;4954954;28;20487;-41
2024/04/03 11:51:48;;;;;;;5.63;0.98;;;;;;;;;;4958587;28;20186;-41
2024/04/03 11:54:14;;;;;;;1.42;1.00;;;;;;;;;;4954951;28;20175;-41
2024/04/03 11:56:40;;;;;;;1.48;0.82;;;;;;;;;;4961094;28;20194;-40
2024/04/03 11:59:09;;;;;;;2.85;0.90;;;;;;;;;;4959330;28;20620;-40
2024/04/03 12:01:35;;;;;;;3.25;0.88;;;;;;;;;;4956885;28;20496;-41
2024/04/03 12:04:02;;;;;;;2.85;0.75;;;;;;;;;;4952179;28;20178;-41
2024/04/03 12:06:28;;;;;;;1.35;0.70;;;;;;;;;;4953924;28;20326;-41
2024/04/03 12:08:54;;;;;;;1.92;0.80;;;;;;;;;;4958346;28;20262;-41
2024/04/03 12:11:20;;;;;;;1.75;1.02;;;;;;;;;;4958092;28;20226;-41
2024/04/03 12:13:46;;;;;;;4.78;1.10;;;;;;;;;;4958804;28;20195;-41
2024/04/03 12:16:13;;;;;;;2.25;1.27;;;;;;;;;;4952073;28;20179;-41
2024/04/03 12:18:49;;;;;;;1.23;0.88;;;;;;;;;;4967453;28;20450;-40
2024/04/03 12:21:16;;;;;;;1.05;0.70;;;;;;;;;;4952854;28;20597;-41
2024/04/03 12:23:42;;;;;;;1.73;0.80;;;;;;;;;;4953957;28;20194;-41
2024/04/03 12:26:09;;;;;;;1.83;0.60;;;;;;;;;;4965433;28;20237;-41
2024/04/03 12:28:35;;;;;;;0.90;0.60;;;;;;;;;;4952873;28;20630;-41
2024/04/03 12:31:01;;;;;;;3.28;0.90;;;;;;;;;;4968528;28;20234;-41
2024/04/03 12:33:28;;;;;;;1.20;0.73;;;;;;;;;;4951836;28;20198;-41
2024/04/03 12:35:54;;;;;;;0.80;0.70;;;;;;;;;;4960788;28;20273;-41
2024/04/03 12:38:20;;;;;;;1.25;0.80;;;;;;;;;;4956849;28;20284;-41
2024/04/03 12:40:46;;;;;;;5.45;1.08;;;;;;;;;;4959587;28;20571;-41
2024/04/03 12:43:12;;;;;;;0.98;0.60;;;;;;;;;;4953966;28;20190;-41
2024/04/03 12:45:38;;;;;;;2.38;0.80;;;;;;;;;;4952223;29;20194;-41
2024/04/03 12:48:04;;;;;;;2.45;0.95;;;;;;;;;;4957888;28;20232;-41
2024/04/03 12:50:30;;;;;;;1.48;0.70;;;;;;;;;;4957096;28;20483;-41
2024/04/03 12:52:56;;;;;;;2.63;0.70;;;;;;;;;;4955514;28;20550;-41
2024/04/03 12:55:23;;;;;;;2.15;0.95;;;;;;;;;;4953553;28;20239;-41
2024/04/03 12:57:49;;;;;;;2.35;1.08;;;;;;;;;;4954628;28;20183;-41
2024/04/03 13:00:15;;;;;;;1.55;0.65;;;;;;;;;;4954641;28;20516;-41
2024/04/03 13:02:44;;;;;;;0.95;0.70;;;;;;;;;;4952185;28;20190;-41
2024/04/03 13:05:10;;;;;;;1.75;1.02;;;;;;;;;;4953118;28;20537;-41
2024/04/03 13:07:36;;;;;;;1.58;0.70;;;;;;;;;;4956968;28;20241;-41
2024/04/03 13:10:02;;;;;;;1.48;0.75;;;;;;;;;;4961119;28;20474;-41
2024/04/03 13:12:28;;;;;;;2.50;0.75;;;;;;;;;;4957842;28;20194;-41
2024/04/03 13:14:54;;;;;;;2.65;0.80;;;;;;;;;;4950079;28;20386;-41
2024/04/03 13:17:20;;;;;;;0.70;0.70;;;;;;;;;;4957890;28;20681;-41
2024/04/03 13:19:46;;;;;;;1.92;0.75;;;;;;;;;;4966569;28;20670;-41
2024/04/03 13:22:16;;;;;;;1.60;0.77;;;;;;;;;;4953953;28;20199;-41
2024/04/03 13:24:42;;;;;;;2.45;0.55;;;;;;;;;;4952959;28;20194;-41
2024/04/03 13:27:08;;;;;;;1.23;0.70;;;;;;;;;;4952941;28;20210;-41
2024/04/03 13:29:34;;;;;;;2.15;0.80;;;;;;;;;;4954215;28;20214;-41
2024/04/03 13:32:00;;;;;;;3.53;0.77;;;;;;;;;;4951564;28;20458;-41
2024/04/03 13:34:26;;;;;;;2.90;0.60;;;;;;;;;;4950480;28;20218;-41
2024/04/03 13:36:52;;;;;;;1.35;0.60;;;;;;;;;;4952456;28;20187;-41
2024/04/03 13:39:18;;;;;;;1.90;0.75;;;;;;;;;;4973759;28;20230;-41
2024/04/03 13:41:44;;;;;;;1.10;0.73;;;;;;;;;;4952069;28;20608;-41
2024/04/03 13:44:10;;;;;;;2.30;0.70;;;;;;;;;;4951444;28;20357;-41
2024/04/03 13:46:37;;;;;;;1.08;0.70;;;;;;;;;;4950668;28;21096;-41
2024/04/03 13:49:03;;;;;;;0.60;0.60;;;;;;;;;;4955092;28;20224;-41
2024/04/03 13:51:29;;;;;;;1.40;0.57;;;;;;;;;;4953171;28;20220;-41
2024/04/03 13:53:55;;;;;;;0.90;0.60;;;;;;;;;;4948365;28;20186;-41
2024/04/03 13:56:23;;;;;;;0.98;0.57;;;;;;;;;;4956557;28;20231;-41
2024/04/03 13:58:49;;;;;;;1.48;0.70;;;;;;;;;;4958126;28;20178;-41
2024/04/03 14:01:15;;;;;;;1.33;0.47;;;;;;;;;;4953790;28;20221;-40
2024/04/03 14:03:41;;;;;;;1.92;0.60;;;;;;;;;;4952990;28;20229;-41
2024/04/03 14:06:07;;;;;;;0.80;0.52;;;;;;;;;;4956749;28;20187;-41
2024/04/03 14:08:35;;;;;;;2.08;0.77;;;;;;;;;;4946734;28;20209;-41
2024/04/03 14:11:01;;;;;;;0.75;0.40;;;;;;;;;;4955559;28;20210;-41
2024/04/03 14:13:27;;;;;;;1.55;0.47;;;;;;;;;;4959770;28;20519;-41
2024/04/03 14:15:53;;;;;;;0.63;0.50;;;;;;;;;;4967986;28;20175;-41
2024/04/03 14:18:19;;;;;;;1.85;0.50;;;;;;;;;;4964646;28;20190;-41
2024/04/03 14:20:46;;;;;;;0.95;0.57;;;;;;;;;;4955704;28;20597;-41
2024/04/03 14:23:12;;;;;;;1.42;0.60;;;;;;;;;;4974430;28;20178;-41
2024/04/03 14:25:46;;;;;;;1.60;0.70;;;;;;;;;;4958618;28;20194;-41
2024/04/03 14:28:14;;;;;;;0.45;0.40;;;;;;;;;;4947916;28;20635;-41
2024/04/03 14:30:41;;;;;;;0.50;0.50;;;;;;;;;;4956851;28;20221;-41
2024/04/03 14:33:08;;;;;;;0.65;0.63;;;;;;;;;;4955577;28;20429;-41
2024/04/03 14:35:34;;;;;;;1.13;0.60;;;;;;;;;;4967015;28;20186;-41
2024/04/03 14:38:02;;;;;;;0.77;0.50;;;;;;;;;;4974476;28;20182;-41
2024/04/03 14:40:29;;;;;;;0.57;0.50;;;;;;;;;;4969767;28;20198;-41
2024/04/03 14:42:54;;;;;;;0.50;0.50;;;;;;;;;;4970631;28;20187;-41
2024/04/03 14:45:21;;;;;;;0.43;0.43;;;;;;;;;;4953203;28;20209;-41
2024/04/03 14:47:47;;;;;;;1.50;0.70;;;;;;;;;;4959804;28;20177;-41
2024/04/03 14:50:13;;;;;;;0.73;0.30;;;;;;;;;;4960275;28;20661;-41
2024/04/03 14:52:43;;;;;;;0.93;0.52;;;;;;;;;;4964239;28;20187;-41
2024/04/03 14:55:09;;;;;;;1.67;0.63;;;;;;;;;;4965409;28;20528;-41
2024/04/03 14:57:35;;;;;;;1.75;0.73;;;;;;;;;;4964074;28;20265;-41
2024/04/03 15:00:03;;;;;;;0.63;0.45;;;;;;;;;;4963711;28;20240;-41
2024/04/03 15:02:29;;;;;;;0.93;0.65;;;;;;;;;;4957060;28;20186;-41
2024/04/03 15:04:55;;;;;;;0.82;0.52;;;;;;;;;;4957770;28;20514;-41
2024/04/03 15:07:21;;;;;;;0.73;0.47;;;;;;;;;;4956541;28;20189;-42
2024/04/03 15:09:47;;;;;;;1.40;0.77;;;;;;;;;;4954781;28;20826;-41
2024/04/03 15:12:15;;;;;;;0.70;0.70;;;;;;;;;;4966026;28;20190;-41
2024/04/03 15:14:41;;;;;;;0.63;0.60;;;;;;;;;;4961849;28;20273;-41
2024/04/03 15:17:22;;;;;;;0.40;0.40;;;;;;;;;;4954961;28;20294;-41
2024/04/03 15:19:47;;;;;;;0.70;0.50;;;;;;;;;;4959677;28;20246;-41
2024/04/03 15:22:13;;;;;;;1.25;0.60;;;;;;;;;;4956577;28;20446;-41
2024/04/03 15:24:39;;;;;;;2.15;0.60;;;;;;;;;;4951094;28;20636;-41
2024/04/03 15:27:05;;;;;;;0.68;0.52;;;;;;;;;;4950897;28;20534;-41
2024/04/03 15:29:31;;;;;;;0.98;0.60;;;;;;;;;;4961706;28;20217;-41
2024/04/03 15:31:57;;;;;;;0.93;0.50;;;;;;;;;;4953235;28;20475;-41
2024/04/03 15:34:23;;;;;;;0.63;0.57;;;;;;;;;;4957730;28;20205;-41
2024/04/03 15:36:50;;;;;;;0.55;0.55;;;;;;;;;;4953620;28;20289;-41
2024/04/03 15:39:17;;;;;;;0.50;0.50;;;;;;;;;;4957688;28;20181;-41
2024/04/03 15:41:43;;;;;;;0.70;0.50;;;;;;;;;;4948402;28;20471;-41
2024/04/03 15:44:09;;;;;;;0.70;0.57;;;;;;;;;;4975019;28;20183;-41
2024/04/03 15:46:40;;;;;;;0.40;0.40;;;;;;;;;;4953727;28;20549;-41
2024/04/03 15:49:06;;;;;;;0.40;0.40;;;;;;;;;;4964862;28;20309;-41
2024/04/03 15:51:32;;;;;;;0.93;0.57;;;;;;;;;;4949896;28;20224;-41
2024/04/03 15:53:58;;;;;;;0.45;0.45;;;;;;;;;;4955953;28;20184;-41
2024/04/03 15:56:24;;;;;;;0.73;0.40;;;;;;;;;;4957710;28;20469;-41
2024/04/03 15:58:50;;;;;;;0.57;0.57;;;;;;;;;;4957091;28;20190;-41
2024/04/03 16:01:16;;;;;;;0.90;0.47;;;;;;;;;;4951769;28;20191;-41
2024/04/03 16:03:42;;;;;;;0.43;0.43;;;;;;;;;;4968128;28;20212;-41
2024/04/03 16:06:08;;;;;;;0.35;0.35;;;;;;;;;;4952835;28;20270;-41
2024/04/03 16:08:33;;;;;;;0.43;0.43;;;;;;;;;;4957309;28;20194;-41
2024/04/03 16:11:00;;;;;;;0.60;0.47;;;;;;;;;;4955145;28;20206;-41
2024/04/03 16:13:26;;;;;;;0.55;0.45;;;;;;;;;;4954162;28;20277;-41
2024/04/03 16:15:52;;;;;;;0.77;0.65;;;;;;;;;;4954176;28;20257;-41
2024/04/03 16:18:18;;;;;;;0.57;0.45;;;;;;;;;;4955641;28;20210;-41
2024/04/03 16:20:44;;;;;;;0.52;0.52;;;;;;;;;;4954275;28;20240;-41
2024/04/03 16:23:10;;;;;;;1.10;0.38;;;;;;;;;;4955034;28;20232;-41
2024/04/03 16:25:36;;;;;;;0.55;0.55;;;;;;;;;;4952284;28;20458;-41
2024/04/03 16:28:02;;;;;;;0.73;0.50;;;;;;;;;;4956182;28;20605;-41
2024/04/03 16:30:28;;;;;;;0.77;0.60;;;;;;;;;;4950883;28;20869;-41
2024/04/03 16:32:54;;;;;;;0.57;0.47;;;;;;;;;;4955253;28;20323;-41
2024/04/03 16:35:20;;;;;;;1.20;0.52;;;;;;;;;;4959159;28;20212;-41
2024/04/03 16:37:46;;;;;;;0.88;0.52;;;;;;;;;;4958074;28;20517;-41
2024/04/03 16:40:12;;;;;;;0.57;0.50;;;;;;;;;;4951743;28;20482;-41
2024/04/03 16:42:38;;;;;;;0.80;0.45;;;;;;;;;;4950215;28;20278;-41
2024/04/03 16:45:04;;;;;;;1.15;0.55;;;;;;;;;;4951093;28;20555;-41
2024/04/03 16:47:32;;;;;;;1.35;0.65;;;;;;;;;;4944385;28;20216;-41
2024/04/03 16:49:58;;;;;;;0.47;0.43;;;;;;;;;;4953399;28;20237;-41
2024/04/03 16:52:24;;;;;;;0.98;0.50;;;;;;;;;;4952515;28;20566;-41
2024/04/03 16:54:53;;;;;;;1.27;0.80;;;;;;;;;;4954372;28;20280;-41
2024/04/03 16:57:19;;;;;;;0.55;0.55;;;;;;;;;;4945952;28;20629;-41
2024/04/03 16:59:46;;;;;;;0.82;0.40;;;;;;;;;;4965796;28;20356;-41
2024/04/03 17:02:11;;;;;;;0.60;0.52;;;;;;;;;;4948249;28;20186;-41
2024/04/03 17:04:37;;;;;;;0.68;0.57;;;;;;;;;;4955141;28;20497;-41
2024/04/03 17:07:03;;;;;;;0.60;0.50;;;;;;;;;;4952573;28;20186;-41
2024/04/03 17:09:29;;;;;;;0.43;0.40;;;;;;;;;;4967022;28;20186;-41
2024/04/03 17:11:55;;;;;;;1.15;0.43;;;;;;;;;;4950694;28;20182;-41
2024/04/03 17:14:21;;;;;;;0.40;0.40;;;;;;;;;;4963738;28;20186;-41
2024/04/03 17:16:48;;;;;;;0.50;0.50;;;;;;;;;;4951596;28;20582;-41
2024/04/03 17:19:14;;;;;;;1.85;0.57;;;;;;;;;;4951869;28;20309;-41
2024/04/03 17:21:42;;;;;;;0.52;0.40;;;;;;;;;;4951765;28;20535;-41
2024/04/03 17:24:08;;;;;;;0.88;0.60;;;;;;;;;;4952006;28;20189;-41
2024/04/03 17:26:34;;;;;;;1.10;0.52;;;;;;;;;;4968047;28;20209;-41
2024/04/03 17:29:00;;;;;;;0.50;0.50;;;;;;;;;;4951016;28;20190;-41
2024/04/03 17:31:26;;;;;;;0.32;0.30;;;;;;;;;;4953472;28;20198;-41
2024/04/03 17:33:52;;;;;;;0.50;0.50;;;;;;;;;;4954882;28;20261;-41
2024/04/03 17:36:19;;;;;;;0.47;0.40;;;;;;;;;;4953061;28;20195;-41
2024/04/03 17:38:45;;;;;;;0.45;0.45;;;;;;;;;;4950217;28;20269;-41
2024/04/03 17:41:11;;;;;;;0.40;0.40;;;;;;;;;;4956574;28;20191;-41
2024/04/03 17:43:38;;;;;;;0.30;0.30;;;;;;;;;;4951929;28;20190;-41
2024/04/03 17:46:04;;;;;;;0.50;0.50;;;;;;;;;;4957979;28;20201;-41
2024/04/03 17:48:30;;;;;;;0.40;0.40;;;;;;;;;;4951147;28;20563;-41
2024/04/03 17:50:56;;;;;;;0.73;0.50;;;;;;;;;;4954446;28;20256;-41
2024/04/03 17:53:24;;;;;;;0.30;0.30;;;;;;;;;;4961940;28;20222;-41
2024/04/03 17:55:50;;;;;;;0.63;0.40;;;;;;;;;;4961635;28;20204;-42
2024/04/03 17:58:16;;;;;;;0.50;0.50;;;;;;;;;;4953957;28;21318;-41
2024/04/03 18:00:41;;;;;;;0.50;0.50;;;;;;;;;;4956952;28;20566;-41
2024/04/03 18:03:07;;;;;;;0.35;0.35;;;;;;;;;;4955306;28;20193;-41
2024/04/03 18:05:34;;;;;;;0.55;0.45;;;;;;;;;;4960162;28;20190;-42
2024/04/03 18:08:02;;;;;;;0.32;0.30;;;;;;;;;;4957198;28;20239;-41
2024/04/03 18:10:27;;;;;;;0.47;0.47;;;;;;;;;;4956212;28;20217;-41
2024/04/03 18:12:53;;;;;;;0.55;0.55;;;;;;;;;;4951907;28;20178;-41
2024/04/03 18:15:20;;;;;;;0.50;0.50;;;;;;;;;;4954497;28;20197;-41
2024/04/03 18:17:46;;;;;;;1.30;0.70;;;;;;;;;;4957664;28;20509;-41
2024/04/03 18:20:12;;;;;;;0.50;0.50;;;;;;;;;;4953856;28;20182;-41
2024/04/03 18:22:38;;;;;;;0.55;0.55;;;;;;;;;;4963164;28;20190;-41
2024/04/03 18:25:04;;;;;;;1.00;0.60;;;;;;;;;;4960501;28;20305;-41
2024/04/03 18:27:31;;;;;;;0.43;0.43;;;;;;;;;;4958156;28;20549;-41
2024/04/03 18:29:57;;;;;;;0.75;0.52;;;;;;;;;;4954416;28;20221;-41
2024/04/03 18:32:23;;;;;;;0.40;0.40;;;;;;;;;;4954939;28;20174;-41
2024/04/03 18:34:49;;;;;;;0.40;0.40;;;;;;;;;;4956113;28;20542;-41
2024/04/03 18:37:15;;;;;;;0.60;0.60;;;;;;;;;;4954972;28;20220;-41
2024/04/03 18:39:41;;;;;;;0.50;0.50;;;;;;;;;;4955676;28;20199;-41
2024/04/03 18:42:07;;;;;;;0.70;0.50;;;;;;;;;;4957490;28;20387;-41
2024/04/03 18:44:32;;;;;;;0.50;0.50;;;;;;;;;;4954140;28;20202;-41
2024/04/03 18:46:59;;;;;;;0.40;0.40;;;;;;;;;;4956152;28;20179;-41
2024/04/03 18:49:25;;;;;;;0.60;0.60;;;;;;;;;;4955437;28;20194;-41
2024/04/03 18:51:51;;;;;;;1.40;0.50;;;;;;;;;;4956205;28;20195;-41
2024/04/03 18:54:17;;;;;;;0.80;0.60;;;;;;;;;;4955480;28;20190;-42
2024/04/03 18:56:43;;;;;;;0.40;0.38;;;;;;;;;;4957615;28;20193;-41
2024/04/03 18:59:09;;;;;;;0.52;0.52;;;;;;;;;;4952717;28;20187;-41
2024/04/03 19:01:36;;;;;;;0.70;0.60;;;;;;;;;;4955021;28;20202;-41
2024/04/03 19:04:02;;;;;;;0.45;0.43;;;;;;;;;;4956837;28;20181;-41
2024/04/03 19:06:30;;;;;;;0.70;0.60;;;;;;;;;;4971221;28;20182;-41
2024/04/03 19:08:56;;;;;;;8.60;0.88;;;;;;;;;;4961031;28;20260;-41
2024/04/03 19:11:22;;;;;;;0.93;0.63;;;;;;;;;;4953513;28;20609;-42
2024/04/03 19:13:48;;;;;;;0.70;0.57;;;;;;;;;;4954293;28;20186;-41
2024/04/03 19:16:14;;;;;;;1.10;0.50;;;;;;;;;;4956149;28;20435;-41
2024/04/03 19:18:40;;;;;;;0.70;0.60;;;;;;;;;;4975935;28;20171;-41
2024/04/03 19:21:07;;;;;;;0.60;0.60;;;;;;;;;;4957637;28;20197;-41
2024/04/03 19:23:33;;;;;;;0.65;0.50;;;;;;;;;;4962667;28;20550;-42
2024/04/03 19:25:59;;;;;;;0.63;0.60;;;;;;;;;;4956872;28;20193;-42
2024/04/03 19:28:26;;;;;;;0.60;0.60;;;;;;;;;;4954274;28;20209;-41
2024/04/03 19:30:58;;;;;;;0.85;0.70;;;;;;;;;;4956179;28;20298;-41
2024/04/03 19:33:26;;;;;;;0.70;0.70;;;;;;;;;;4954747;28;20554;-41
2024/04/03 19:35:52;;;;;;;0.70;0.70;;;;;;;;;;4955086;28;20322;-41
2024/04/03 19:38:18;;;;;;;0.57;0.57;;;;;;;;;;4954534;28;20265;-41
2024/04/03 19:40:44;;;;;;;2.10;0.70;;;;;;;;;;4954353;28;20178;-41
2024/04/03 19:43:10;;;;;;;1.75;1.17;;;;;;;;;;4952711;28;20190;-41
2024/04/03 19:45:37;;;;;;;0.50;0.50;;;;;;;;;;4958555;28;20549;-41
2024/04/03 19:48:04;;;;;;;0.60;0.60;;;;;;;;;;4961904;28;20185;-41
2024/04/03 19:50:30;;;;;;;0.60;0.60;;;;;;;;;;4955383;28;20241;-41
2024/04/03 19:52:56;;;;;;;0.52;0.52;;;;;;;;;;4966111;28;20463;-41
2024/04/03 19:55:22;;;;;;;0.63;0.63;;;;;;;;;;4955458;28;20491;-41
2024/04/03 19:57:48;;;;;;;0.80;0.80;;;;;;;;;;4959505;28;20175;-41
2024/04/03 20:00:14;;;;;;;0.70;0.70;;;;;;;;;;4953074;28;20487;-41
2024/04/03 20:02:40;;;;;;;2.47;0.80;;;;;;;;;;4956683;28;20217;-41
2024/04/03 20:05:06;;;;;;;0.80;0.80;;;;;;;;;;4954472;28;20974;-41
2024/04/03 20:07:33;;;;;;;1.10;0.70;;;;;;;;;;4958234;28;20194;-41
2024/04/03 20:09:59;;;;;;;0.77;0.70;;;;;;;;;;4967958;28;20216;-41
2024/04/03 20:12:25;;;;;;;0.98;0.90;;;;;;;;;;4952615;28;20205;-41
2024/04/03 20:14:51;;;;;;;0.95;0.68;;;;;;;;;;4957272;28;20267;-41
2024/04/03 20:17:18;;;;;;;0.90;0.63;;;;;;;;;;4953774;28;20202;-42
2024/04/03 20:19:44;;;;;;;0.80;0.70;;;;;;;;;;4953826;28;20233;-41
2024/04/03 20:22:12;;;;;;;1.85;0.90;;;;;;;;;;4953847;28;20191;-41
2024/04/03 20:24:42;;;;;;;0.60;0.60;;;;;;;;;;4959403;28;20175;-41
2024/04/03 20:27:08;;;;;;;0.70;0.70;;;;;;;;;;4954492;28;20191;-41
2024/04/03 20:29:37;;;;;;;1.20;0.80;;;;;;;;;;4958708;28;20273;-41
2024/04/03 20:32:03;;;;;;;0.80;0.80;;;;;;;;;;4954572;28;20261;-41
2024/04/03 20:34:32;;;;;;;1.27;1.00;;;;;;;;;;4954172;28;20209;-41
2024/04/03 20:36:58;;;;;;;0.90;0.80;;;;;;;;;;4959340;28;20257;-41
2024/04/03 20:39:24;;;;;;;0.77;0.77;;;;;;;;;;4956280;28;20427;-42
2024/04/03 20:41:50;;;;;;;1.45;0.70;;;;;;;;;;4956930;28;20559;-41
2024/04/03 20:44:18;;;;;;;2.17;0.70;;;;;;;;;;4958318;28;20243;-41
2024/04/03 20:46:44;;;;;;;1.65;0.80;;;;;;;;;;4955082;28;20562;-41
2024/04/03 20:49:10;;;;;;;0.98;0.90;;;;;;;;;;4972800;28;20263;-41
2024/04/03 20:51:36;;;;;;;1.33;0.80;;;;;;;;;;4958008;28;20284;-41
2024/04/03 20:54:03;;;;;;;1.08;0.93;;;;;;;;;;4956566;28;20515;-41
2024/04/03 20:56:29;;;;;;;1.02;0.73;;;;;;;;;;4956613;28;20178;-42
2024/04/03 20:58:55;;;;;;;0.70;0.70;;;;;;;;;;4969321;28;20539;-41
2024/04/03 21:01:22;;;;;;;0.63;0.60;;;;;;;;;;4954776;28;20324;-41
2024/04/03 21:03:48;;;;;;;0.65;0.65;;;;;;;;;;4968758;28;20193;-41
2024/04/03 21:06:14;;;;;;;0.80;0.80;;;;;;;;;;4957431;28;20186;-41
2024/04/03 21:08:40;;;;;;;0.90;0.80;;;;;;;;;;4953659;28;20185;-41
2024/04/03 21:11:09;;;;;;;1.05;0.90;;;;;;;;;;4953304;28;20285;-41
2024/04/03 21:13:35;;;;;;;0.70;0.68;;;;;;;;;;4952800;28;20260;-40
2024/04/03 21:16:01;;;;;;;0.60;0.60;;;;;;;;;;4957625;28;20214;-41
2024/04/03 21:18:27;;;;;;;1.13;0.85;;;;;;;;;;4954186;28;20229;-41
2024/04/03 21:20:52;;;;;;;0.75;0.55;;;;;;;;;;4956531;28;20562;-41
2024/04/03 21:23:18;;;;;;;0.70;0.70;;;;;;;;;;4953309;28;20187;-41
2024/04/03 21:25:44;;;;;;;1.38;0.85;;;;;;;;;;4954338;28;20197;-41
2024/04/03 21:28:10;;;;;;;1.00;0.85;;;;;;;;;;4967768;28;20566;-41
2024/04/03 21:30:36;;;;;;;1.67;0.80;;;;;;;;;;4952238;28;20218;-41
2024/04/03 21:33:03;;;;;;;0.90;0.80;;;;;;;;;;4953062;28;20285;-41
2024/04/03 21:35:29;;;;;;;1.73;0.80;;;;;;;;;;4955984;28;20193;-41
2024/04/03 21:37:55;;;;;;;2.53;0.90;;;;;;;;;;4951430;28;20195;-41
2024/04/03 21:40:21;;;;;;;0.98;0.70;;;;;;;;;;4955555;28;20267;-41
2024/04/03 21:42:47;;;;;;;0.60;0.60;;;;;;;;;;4953081;28;20558;-41
2024/04/03 21:45:12;;;;;;;1.10;0.85;;;;;;;;;;4952738;28;20179;-41
2024/04/03 21:47:38;;;;;;;1.05;0.82;;;;;;;;;;4951914;28;20490;-41
2024/04/03 21:50:04;;;;;;;0.80;0.80;;;;;;;;;;4954328;28;20218;-41
2024/04/03 21:52:31;;;;;;;0.82;0.82;;;;;;;;;;4978571;28;20268;-41
2024/04/03 21:54:57;;;;;;;0.80;0.80;;;;;;;;;;4965409;28;20175;-41
2024/04/03 21:57:26;;;;;;;0.88;0.80;;;;;;;;;;4950168;28;20587;-41
2024/04/03 21:59:52;;;;;;;1.15;0.80;;;;;;;;;;4949920;28;20220;-41
2024/04/03 22:02:17;;;;;;;1.52;1.05;;;;;;;;;;4949295;28;20768;-41
2024/04/03 22:04:44;;;;;;;1.10;1.00;;;;;;;;;;4951323;28;20190;-41
2024/04/03 22:07:10;;;;;;;0.70;0.70;;;;;;;;;;4956997;28;20221;-41
2024/04/03 22:09:36;;;;;;;0.70;0.70;;;;;;;;;;4957439;28;20229;-41
2024/04/03 22:12:02;;;;;;;0.98;0.88;;;;;;;;;;4954017;28;20246;-42
2024/04/03 22:14:28;;;;;;;0.80;0.73;;;;;;;;;;4957581;28;20182;-41
2024/04/03 22:16:54;;;;;;;1.10;0.73;;;;;;;;;;4954209;28;20174;-41
2024/04/03 22:19:19;;;;;;;0.50;0.50;;;;;;;;;;4952740;28;20539;-42
2024/04/03 22:21:45;;;;;;;0.70;0.70;;;;;;;;;;4953558;28;20194;-41
2024/04/03 22:24:11;;;;;;;0.70;0.70;;;;;;;;;;4957346;28;20187;-41
2024/04/03 22:26:37;;;;;;;0.80;0.80;;;;;;;;;;4967662;28;20178;-41
2024/04/03 22:29:03;;;;;;;1.13;0.90;;;;;;;;;;4953277;28;20436;-41
2024/04/03 22:31:29;;;;;;;1.13;0.90;;;;;;;;;;4952816;28;20364;-42
2024/04/03 22:33:55;;;;;;;0.77;0.77;;;;;;;;;;4952557;28;20182;-41
2024/04/03 22:36:21;;;;;;;0.68;0.57;;;;;;;;;;4952392;28;20182;-42
2024/04/03 22:38:47;;;;;;;0.73;0.73;;;;;;;;;;4956895;28;20459;-41
2024/04/03 22:41:13;;;;;;;0.82;0.80;;;;;;;;;;4956889;28;20395;-41
2024/04/03 22:43:39;;;;;;;0.85;0.70;;;;;;;;;;4959002;28;20236;-41
2024/04/03 22:46:05;;;;;;;0.90;0.60;;;;;;;;;;4956201;28;20564;-41
2024/04/03 22:48:31;;;;;;;0.70;0.70;;;;;;;;;;4954146;28;20187;-41
2024/04/03 22:50:57;;;;;;;0.70;0.65;;;;;;;;;;4960190;28;20285;-41
2024/04/03 22:53:23;;;;;;;0.73;0.70;;;;;;;;;;4960643;28;20187;-41
2024/04/03 22:55:49;;;;;;;1.00;0.80;;;;;;;;;;4960993;28;20191;-41
2024/04/03 22:58:15;;;;;;;1.10;0.70;;;;;;;;;;4956056;28;20194;-41
2024/04/03 23:00:41;;;;;;;1.27;0.90;;;;;;;;;;4958434;28;20566;-41
2024/04/03 23:03:07;;;;;;;0.70;0.70;;;;;;;;;;4953124;28;20198;-41
2024/04/03 23:05:33;;;;;;;0.73;0.70;;;;;;;;;;4957514;28;20199;-41
2024/04/03 23:07:59;;;;;;;0.68;0.63;;;;;;;;;;4970744;28;20183;-41
2024/04/03 23:10:28;;;;;;;0.73;0.68;;;;;;;;;;4956433;28;20218;-41
2024/04/03 23:12:55;;;;;;;0.60;0.60;;;;;;;;;;4955083;28;20179;-41
2024/04/03 23:15:21;;;;;;;0.60;0.60;;;;;;;;;;4958008;28;20191;-41
2024/04/03 23:17:47;;;;;;;0.65;0.57;;;;;;;;;;4955219;28;20237;-41
2024/04/03 23:20:13;;;;;;;0.55;0.45;;;;;;;;;;4954703;28;20214;-41
2024/04/03 23:22:39;;;;;;;0.70;0.70;;;;;;;;;;4955985;28;20194;-41
2024/04/03 23:25:05;;;;;;;0.60;0.60;;;;;;;;;;4955402;28;20583;-41
2024/04/03 23:27:31;;;;;;;0.68;0.68;;;;;;;;;;4955460;28;20277;-41
2024/04/03 23:29:57;;;;;;;0.80;0.80;;;;;;;;;;4955387;28;20356;-41
2024/04/03 23:32:23;;;;;;;0.70;0.70;;;;;;;;;;4956468;28;20253;-41
2024/04/03 23:34:49;;;;;;;1.05;0.70;;;;;;;;;;4958613;28;20182;-41
2024/04/03 23:37:16;;;;;;;0.63;0.63;;;;;;;;;;4956820;28;20250;-41
2024/04/03 23:39:42;;;;;;;0.50;0.50;;;;;;;;;;4953050;28;20187;-41
2024/04/03 23:42:08;;;;;;;0.70;0.70;;;;;;;;;;4957200;28;20190;-41
2024/04/03 23:44:34;;;;;;;0.70;0.70;;;;;;;;;;4956533;28;20201;-41
2024/04/03 23:47:00;;;;;;;0.70;0.70;;;;;;;;;;4962261;28;20193;-41
2024/04/03 23:49:26;;;;;;;0.80;0.80;;;;;;;;;;4954440;28;20217;-41
2024/04/03 23:51:55;;;;;;;1.65;0.68;;;;;;;;;;4956584;28;20202;-41
2024/04/03 23:54:21;;;;;;;0.98;0.80;;;;;;;;;;4954993;28;20178;-41
2024/04/03 23:56:47;;;;;;;0.80;0.80;;;;;;;;;;4958803;28;20241;-41
2024/04/03 23:59:13;;;;;;;0.80;0.70;;;;;;;;;;4954390;28;20369;-41
